sensor_id;sensor_type;location;lat;lon;timestamp;temperature;humidity
56103;DHT22;41970;48.774;9.280;2023-05-28T00:00:06;15.50;91.60
56103;DHT22;41970;48.774;9.280;2023-05-28T00:02:34;15.40;91.60
56103;DHT22;41970;48.774;9.280;2023-05-28T00:04:59;15.20;91.90
56103;DHT22;41970;48.774;9.280;2023-05-28T00:07:26;15.10;92.20
56103;DHT22;41970;48.774;9.280;2023-05-28T00:10:00;15.00;92.30
56103;DHT22;41970;48.774;9.280;2023-05-28T00:12:26;14.80;92.50
56103;DHT22;41970;48.774;9.280;2023-05-28T00:14:51;14.80;92.60
56103;DHT22;41970;48.774;9.280;2023-05-28T00:17:18;14.70;92.70
56103;DHT22;41970;48.774;9.280;2023-05-28T00:19:44;14.80;92.70
56103;DHT22;41970;48.774;9.280;2023-05-28T00:22:10;14.80;92.40
56103;DHT22;41970;48.774;9.280;2023-05-28T00:24:36;14.80;92.80
56103;DHT22;41970;48.774;9.280;2023-05-28T00:27:02;14.80;92.50
56103;DHT22;41970;48.774;9.280;2023-05-28T00:29:32;14.80;92.70
56103;DHT22;41970;48.774;9.280;2023-05-28T00:31:58;14.70;93.00
56103;DHT22;41970;48.774;9.280;2023-05-28T00:34:24;14.60;93.20
56103;DHT22;41970;48.774;9.280;2023-05-28T00:36:50;14.50;92.90
56103;DHT22;41970;48.774;9.280;2023-05-28T00:39:17;14.40;93.30
56103;DHT22;41970;48.774;9.280;2023-05-28T00:41:43;14.30;93.50
56103;DHT22;41970;48.774;9.280;2023-05-28T00:44:09;14.40;93.50
56103;DHT22;41970;48.774;9.280;2023-05-28T00:46:36;14.50;93.40
56103;DHT22;41970;48.774;9.280;2023-05-28T00:49:02;14.60;93.10
56103;DHT22;41970;48.774;9.280;2023-05-28T00:51:28;14.60;93.10
56103;DHT22;41970;48.774;9.280;2023-05-28T00:53:55;14.50;93.30
56103;DHT22;41970;48.774;9.280;2023-05-28T00:56:21;14.40;93.20
56103;DHT22;41970;48.774;9.280;2023-05-28T00:58:50;14.40;93.60
56103;DHT22;41970;48.774;9.280;2023-05-28T01:01:16;14.30;93.60
56103;DHT22;41970;48.774;9.280;2023-05-28T01:03:43;14.20;93.80
56103;DHT22;41970;48.774;9.280;2023-05-28T01:06:13;14.30;93.90
56103;DHT22;41970;48.774;9.280;2023-05-28T01:08:43;14.10;93.70
56103;DHT22;41970;48.774;9.280;2023-05-28T01:11:11;13.80;93.90
56103;DHT22;41970;48.774;9.280;2023-05-28T01:13:39;13.80;94.00
56103;DHT22;41970;48.774;9.280;2023-05-28T01:16:06;13.80;94.20
56103;DHT22;41970;48.774;9.280;2023-05-28T01:18:32;13.90;94.10
56103;DHT22;41970;48.774;9.280;2023-05-28T01:21:02;14.00;94.00
56103;DHT22;41970;48.774;9.280;2023-05-28T01:23:29;14.00;93.70
56103;DHT22;41970;48.774;9.280;2023-05-28T01:25:58;13.90;93.90
56103;DHT22;41970;48.774;9.280;2023-05-28T01:28:25;13.80;94.20
56103;DHT22;41970;48.774;9.280;2023-05-28T01:30:51;13.80;94.00
56103;DHT22;41970;48.774;9.280;2023-05-28T01:33:19;13.70;94.20
56103;DHT22;41970;48.774;9.280;2023-05-28T01:35:46;13.70;94.10
56103;DHT22;41970;48.774;9.280;2023-05-28T01:38:15;13.60;94.50
56103;DHT22;41970;48.774;9.280;2023-05-28T01:40:44;13.50;95.00
56103;DHT22;41970;48.774;9.280;2023-05-28T01:43:11;13.30;95.20
56103;DHT22;41970;48.774;9.280;2023-05-28T01:45:38;13.30;95.40
56103;DHT22;41970;48.774;9.280;2023-05-28T01:48:05;13.30;95.70
56103;DHT22;41970;48.774;9.280;2023-05-28T01:50:31;13.30;95.30
56103;DHT22;41970;48.774;9.280;2023-05-28T01:52:59;13.40;95.10
56103;DHT22;41970;48.774;9.280;2023-05-28T01:55:25;13.60;94.80
56103;DHT22;41970;48.774;9.280;2023-05-28T01:57:51;13.60;94.90
56103;DHT22;41970;48.774;9.280;2023-05-28T02:00:17;13.60;94.80
56103;DHT22;41970;48.774;9.280;2023-05-28T02:02:43;13.60;94.80
56103;DHT22;41970;48.774;9.280;2023-05-28T02:05:09;13.60;94.80
56103;DHT22;41970;48.774;9.280;2023-05-28T02:07:35;13.60;94.80
56103;DHT22;41970;48.774;9.280;2023-05-28T02:10:01;13.50;94.70
56103;DHT22;41970;48.774;9.280;2023-05-28T02:12:27;13.30;95.30
56103;DHT22;41970;48.774;9.280;2023-05-28T02:14:53;13.20;95.90
56103;DHT22;41970;48.774;9.280;2023-05-28T02:17:19;13.10;95.70
56103;DHT22;41970;48.774;9.280;2023-05-28T02:19:46;13.10;95.60
56103;DHT22;41970;48.774;9.280;2023-05-28T02:22:11;13.20;95.50
56103;DHT22;41970;48.774;9.280;2023-05-28T02:24:40;13.30;95.20
56103;DHT22;41970;48.774;9.280;2023-05-28T02:27:07;13.40;94.90
56103;DHT22;41970;48.774;9.280;2023-05-28T02:29:33;13.40;95.10
56103;DHT22;41970;48.774;9.280;2023-05-28T02:32:00;13.40;95.00
56103;DHT22;41970;48.774;9.280;2023-05-28T02:34:26;13.40;94.70
56103;DHT22;41970;48.774;9.280;2023-05-28T02:36:54;13.30;95.20
56103;DHT22;41970;48.774;9.280;2023-05-28T02:39:21;13.20;95.40
56103;DHT22;41970;48.774;9.280;2023-05-28T02:41:47;13.20;95.70
56103;DHT22;41970;48.774;9.280;2023-05-28T02:44:14;13.10;95.50
56103;DHT22;41970;48.774;9.280;2023-05-28T02:46:39;13.20;95.70
56103;DHT22;41970;48.774;9.280;2023-05-28T02:49:06;13.20;95.80
56103;DHT22;41970;48.774;9.280;2023-05-28T02:51:32;13.20;96.20
56103;DHT22;41970;48.774;9.280;2023-05-28T02:53:57;13.10;96.50
56103;DHT22;41970;48.774;9.280;2023-05-28T02:56:23;12.90;96.80
56103;DHT22;41970;48.774;9.280;2023-05-28T02:58:49;12.80;97.10
56103;DHT22;41970;48.774;9.280;2023-05-28T03:01:15;12.60;97.30
56103;DHT22;41970;48.774;9.280;2023-05-28T03:03:40;12.50;97.60
56103;DHT22;41970;48.774;9.280;2023-05-28T03:06:06;12.60;97.50
56103;DHT22;41970;48.774;9.280;2023-05-28T03:08:33;12.70;97.40
56103;DHT22;41970;48.774;9.280;2023-05-28T03:10:58;12.70;96.90
56103;DHT22;41970;48.774;9.280;2023-05-28T03:13:24;12.80;96.80
56103;DHT22;41970;48.774;9.280;2023-05-28T03:15:50;12.80;96.80
56103;DHT22;41970;48.774;9.280;2023-05-28T03:18:16;12.70;96.60
56103;DHT22;41970;48.774;9.280;2023-05-28T03:20:41;12.70;96.80
56103;DHT22;41970;48.774;9.280;2023-05-28T03:23:07;12.80;96.50
56103;DHT22;41970;48.774;9.280;2023-05-28T03:25:33;12.80;96.40
56103;DHT22;41970;48.774;9.280;2023-05-28T03:28:00;12.80;96.50
56103;DHT22;41970;48.774;9.280;2023-05-28T03:30:26;12.60;96.70
56103;DHT22;41970;48.774;9.280;2023-05-28T03:32:52;12.50;96.70
56103;DHT22;41970;48.774;9.280;2023-05-28T03:35:18;12.40;97.20
56103;DHT22;41970;48.774;9.280;2023-05-28T03:37:44;12.30;97.20
56103;DHT22;41970;48.774;9.280;2023-05-28T03:40:10;12.40;96.90
56103;DHT22;41970;48.774;9.280;2023-05-28T03:42:37;12.30;97.00
56103;DHT22;41970;48.774;9.280;2023-05-28T03:45:03;12.30;96.90
56103;DHT22;41970;48.774;9.280;2023-05-28T03:47:29;12.30;97.10
56103;DHT22;41970;48.774;9.280;2023-05-28T03:49:57;12.40;96.70
56103;DHT22;41970;48.774;9.280;2023-05-28T03:52:24;12.40;96.70
56103;DHT22;41970;48.774;9.280;2023-05-28T03:54:50;12.30;96.60
56103;DHT22;41970;48.774;9.280;2023-05-28T03:57:16;12.20;97.00
56103;DHT22;41970;48.774;9.280;2023-05-28T03:59:42;12.20;97.20
56103;DHT22;41970;48.774;9.280;2023-05-28T04:02:07;12.30;97.30
56103;DHT22;41970;48.774;9.280;2023-05-28T04:04:33;12.40;97.10
56103;DHT22;41970;48.774;9.280;2023-05-28T04:07:02;12.40;97.00
56103;DHT22;41970;48.774;9.280;2023-05-28T04:09:28;12.40;97.20
56103;DHT22;41970;48.774;9.280;2023-05-28T04:11:53;12.40;97.20
56103;DHT22;41970;48.774;9.280;2023-05-28T04:14:19;12.50;97.10
56103;DHT22;41970;48.774;9.280;2023-05-28T04:16:46;12.50;97.10
56103;DHT22;41970;48.774;9.280;2023-05-28T04:19:11;12.50;97.20
56103;DHT22;41970;48.774;9.280;2023-05-28T04:21:37;12.40;97.40
56103;DHT22;41970;48.774;9.280;2023-05-28T04:24:03;12.50;97.30
56103;DHT22;41970;48.774;9.280;2023-05-28T04:26:29;12.50;97.20
56103;DHT22;41970;48.774;9.280;2023-05-28T04:28:55;12.30;97.70
56103;DHT22;41970;48.774;9.280;2023-05-28T04:31:21;12.20;98.00
56103;DHT22;41970;48.774;9.280;2023-05-28T04:33:49;12.10;98.00
56103;DHT22;41970;48.774;9.280;2023-05-28T04:36:15;12.10;98.60
56103;DHT22;41970;48.774;9.280;2023-05-28T04:38:41;12.20;98.40
56103;DHT22;41970;48.774;9.280;2023-05-28T04:41:07;12.40;98.20
56103;DHT22;41970;48.774;9.280;2023-05-28T04:43:33;12.50;98.00
56103;DHT22;41970;48.774;9.280;2023-05-28T04:46:01;12.60;97.80
56103;DHT22;41970;48.774;9.280;2023-05-28T04:48:29;12.70;97.80
56103;DHT22;41970;48.774;9.280;2023-05-28T04:50:57;12.70;97.80
56103;DHT22;41970;48.774;9.280;2023-05-28T04:53:23;12.70;97.90
56103;DHT22;41970;48.774;9.280;2023-05-28T04:55:49;12.70;97.90
56103;DHT22;41970;48.774;9.280;2023-05-28T04:58:18;12.80;97.90
56103;DHT22;41970;48.774;9.280;2023-05-28T05:00:43;12.90;98.00
56103;DHT22;41970;48.774;9.280;2023-05-28T05:03:09;12.90;98.10
56103;DHT22;41970;48.774;9.280;2023-05-28T05:05:35;12.90;98.00
56103;DHT22;41970;48.774;9.280;2023-05-28T05:08:00;13.00;98.40
56103;DHT22;41970;48.774;9.280;2023-05-28T05:10:27;13.00;98.20
56103;DHT22;41970;48.774;9.280;2023-05-28T05:12:53;13.00;98.30
56103;DHT22;41970;48.774;9.280;2023-05-28T05:15:19;13.00;98.20
56103;DHT22;41970;48.774;9.280;2023-05-28T05:17:46;13.10;98.10
56103;DHT22;41970;48.774;9.280;2023-05-28T05:20:12;13.20;98.10
56103;DHT22;41970;48.774;9.280;2023-05-28T05:22:38;13.20;98.20
56103;DHT22;41970;48.774;9.280;2023-05-28T05:25:04;13.30;98.50
56103;DHT22;41970;48.774;9.280;2023-05-28T05:27:30;13.40;98.50
56103;DHT22;41970;48.774;9.280;2023-05-28T05:30:00;13.50;98.40
56103;DHT22;41970;48.774;9.280;2023-05-28T05:32:25;13.50;98.20
56103;DHT22;41970;48.774;9.280;2023-05-28T05:34:51;13.60;98.30
56103;DHT22;41970;48.774;9.280;2023-05-28T05:37:17;13.80;98.20
56103;DHT22;41970;48.774;9.280;2023-05-28T05:39:42;13.80;98.10
56103;DHT22;41970;48.774;9.280;2023-05-28T05:42:08;13.90;98.00
56103;DHT22;41970;48.774;9.280;2023-05-28T05:44:34;14.00;98.10
56103;DHT22;41970;48.774;9.280;2023-05-28T05:47:00;14.00;97.90
56103;DHT22;41970;48.774;9.280;2023-05-28T05:49:26;14.20;97.70
56103;DHT22;41970;48.774;9.280;2023-05-28T05:51:51;14.30;97.40
56103;DHT22;41970;48.774;9.280;2023-05-28T05:54:17;14.40;97.60
56103;DHT22;41970;48.774;9.280;2023-05-28T05:56:43;14.50;97.60
56103;DHT22;41970;48.774;9.280;2023-05-28T05:59:09;14.70;97.20
56103;DHT22;41970;48.774;9.280;2023-05-28T06:01:35;14.80;96.90
56103;DHT22;41970;48.774;9.280;2023-05-28T06:04:01;14.90;96.70
56103;DHT22;41970;48.774;9.280;2023-05-28T06:06:27;15.00;96.50
56103;DHT22;41970;48.774;9.280;2023-05-28T06:08:54;15.10;96.50
56103;DHT22;41970;48.774;9.280;2023-05-28T06:11:20;15.20;96.30
56103;DHT22;41970;48.774;9.280;2023-05-28T06:13:47;15.20;96.30
56103;DHT22;41970;48.774;9.280;2023-05-28T06:16:13;15.40;96.20
56103;DHT22;41970;48.774;9.280;2023-05-28T06:18:39;15.40;96.20
56103;DHT22;41970;48.774;9.280;2023-05-28T06:21:05;15.50;96.20
56103;DHT22;41970;48.774;9.280;2023-05-28T06:23:33;15.60;96.10
56103;DHT22;41970;48.774;9.280;2023-05-28T06:25:59;15.60;95.80
56103;DHT22;41970;48.774;9.280;2023-05-28T06:28:25;15.60;95.80
56103;DHT22;41970;48.774;9.280;2023-05-28T06:30:52;15.70;95.80
56103;DHT22;41970;48.774;9.280;2023-05-28T06:33:18;15.80;95.40
56103;DHT22;41970;48.774;9.280;2023-05-28T06:35:44;15.90;95.70
56103;DHT22;41970;48.774;9.280;2023-05-28T06:38:10;16.10;95.60
56103;DHT22;41970;48.774;9.280;2023-05-28T06:40:36;16.30;95.50
56103;DHT22;41970;48.774;9.280;2023-05-28T06:43:01;16.50;95.60
56103;DHT22;41970;48.774;9.280;2023-05-28T06:45:28;16.60;95.20
56103;DHT22;41970;48.774;9.280;2023-05-28T06:47:54;16.70;94.80
56103;DHT22;41970;48.774;9.280;2023-05-28T06:50:20;16.70;94.90
56103;DHT22;41970;48.774;9.280;2023-05-28T06:52:46;16.90;94.30
56103;DHT22;41970;48.774;9.280;2023-05-28T06:55:12;17.10;93.90
56103;DHT22;41970;48.774;9.280;2023-05-28T06:57:37;17.50;93.20
56103;DHT22;41970;48.774;9.280;2023-05-28T07:00:04;17.70;93.00
56103;DHT22;41970;48.774;9.280;2023-05-28T07:02:40;18.00;92.80
56103;DHT22;41970;48.774;9.280;2023-05-28T07:05:06;18.30;92.70
56103;DHT22;41970;48.774;9.280;2023-05-28T07:07:32;18.60;92.50
56103;DHT22;41970;48.774;9.280;2023-05-28T07:09:58;18.80;92.00
56103;DHT22;41970;48.774;9.280;2023-05-28T07:12:24;19.20;91.50
56103;DHT22;41970;48.774;9.280;2023-05-28T07:14:50;19.40;91.00
56103;DHT22;41970;48.774;9.280;2023-05-28T07:17:16;19.60;91.10
56103;DHT22;41970;48.774;9.280;2023-05-28T07:19:42;19.90;90.50
56103;DHT22;41970;48.774;9.280;2023-05-28T07:22:07;20.30;90.20
56103;DHT22;41970;48.774;9.280;2023-05-28T07:24:33;20.60;89.70
56103;DHT22;41970;48.774;9.280;2023-05-28T07:26:59;20.90;87.40
56103;DHT22;41970;48.774;9.280;2023-05-28T07:29:26;21.20;87.90
56103;DHT22;41970;48.774;9.280;2023-05-28T07:31:52;21.50;86.40
56103;DHT22;41970;48.774;9.280;2023-05-28T07:34:18;21.60;85.60
56103;DHT22;41970;48.774;9.280;2023-05-28T07:36:45;21.40;86.00
56103;DHT22;41970;48.774;9.280;2023-05-28T07:39:10;21.30;86.60
56103;DHT22;41970;48.774;9.280;2023-05-28T07:41:36;21.10;87.10
56103;DHT22;41970;48.774;9.280;2023-05-28T07:44:02;21.30;86.70
56103;DHT22;41970;48.774;9.280;2023-05-28T07:46:29;21.40;86.80
56103;DHT22;41970;48.774;9.280;2023-05-28T07:48:55;21.70;85.30
56103;DHT22;41970;48.774;9.280;2023-05-28T07:51:20;21.80;84.90
56103;DHT22;41970;48.774;9.280;2023-05-28T07:53:46;21.90;84.80
56103;DHT22;41970;48.774;9.280;2023-05-28T07:56:12;22.10;84.50
56103;DHT22;41970;48.774;9.280;2023-05-28T07:58:41;22.30;83.70
56103;DHT22;41970;48.774;9.280;2023-05-28T08:01:07;22.80;83.10
56103;DHT22;41970;48.774;9.280;2023-05-28T08:03:34;23.10;82.60
56103;DHT22;41970;48.774;9.280;2023-05-28T08:06:00;23.10;82.30
56103;DHT22;41970;48.774;9.280;2023-05-28T08:08:27;23.20;82.00
56103;DHT22;41970;48.774;9.280;2023-05-28T08:10:53;23.50;80.40
56103;DHT22;41970;48.774;9.280;2023-05-28T08:13:19;23.70;82.20
56103;DHT22;41970;48.774;9.280;2023-05-28T08:15:44;23.90;80.30
56103;DHT22;41970;48.774;9.280;2023-05-28T08:18:10;24.20;79.10
56103;DHT22;41970;48.774;9.280;2023-05-28T08:20:36;24.30;80.00
56103;DHT22;41970;48.774;9.280;2023-05-28T08:23:02;24.30;80.00
56103;DHT22;41970;48.774;9.280;2023-05-28T08:25:28;24.30;79.70
56103;DHT22;41970;48.774;9.280;2023-05-28T08:27:54;24.40;78.70
56103;DHT22;41970;48.774;9.280;2023-05-28T08:30:19;24.60;79.60
56103;DHT22;41970;48.774;9.280;2023-05-28T08:32:46;24.60;78.30
56103;DHT22;41970;48.774;9.280;2023-05-28T08:35:11;24.50;78.60
56103;DHT22;41970;48.774;9.280;2023-05-28T08:37:38;24.40;78.40
56103;DHT22;41970;48.774;9.280;2023-05-28T08:40:05;24.50;79.10
56103;DHT22;41970;48.774;9.280;2023-05-28T08:42:34;24.60;79.50
56103;DHT22;41970;48.774;9.280;2023-05-28T08:45:04;24.80;79.00
56103;DHT22;41970;48.774;9.280;2023-05-28T08:47:33;25.00;76.90
56103;DHT22;41970;48.774;9.280;2023-05-28T08:50:05;25.00;77.70
56103;DHT22;41970;48.774;9.280;2023-05-28T08:52:32;25.00;77.50
56103;DHT22;41970;48.774;9.280;2023-05-28T08:54:58;25.20;76.60
56103;DHT22;41970;48.774;9.280;2023-05-28T08:57:29;25.20;76.80
56103;DHT22;41970;48.774;9.280;2023-05-28T08:59:57;25.30;77.90
56103;DHT22;41970;48.774;9.280;2023-05-28T09:02:24;25.00;76.70
56103;DHT22;41970;48.774;9.280;2023-05-28T09:04:51;24.70;78.20
56103;DHT22;41970;48.774;9.280;2023-05-28T09:07:17;24.60;77.00
56103;DHT22;41970;48.774;9.280;2023-05-28T09:09:42;24.60;78.80
56103;DHT22;41970;48.774;9.280;2023-05-28T09:12:12;24.60;77.40
56103;DHT22;41970;48.774;9.280;2023-05-28T09:14:40;24.10;77.70
56103;DHT22;41970;48.774;9.280;2023-05-28T09:17:07;24.30;76.60
56103;DHT22;41970;48.774;9.280;2023-05-28T09:19:35;24.40;78.30
56103;DHT22;41970;48.774;9.280;2023-05-28T09:22:01;24.60;78.70
56103;DHT22;41970;48.774;9.280;2023-05-28T09:24:32;24.80;78.40
56103;DHT22;41970;48.774;9.280;2023-05-28T09:26:59;24.70;75.30
56103;DHT22;41970;48.774;9.280;2023-05-28T09:29:26;24.20;75.30
56103;DHT22;41970;48.774;9.280;2023-05-28T09:31:57;24.30;76.90
56103;DHT22;41970;48.774;9.280;2023-05-28T09:34:30;24.50;77.30
56103;DHT22;41970;48.774;9.280;2023-05-28T09:37:02;24.60;77.40
56103;DHT22;41970;48.774;9.280;2023-05-28T09:39:29;24.70;75.60
56103;DHT22;41970;48.774;9.280;2023-05-28T09:41:59;24.70;76.50
56103;DHT22;41970;48.774;9.280;2023-05-28T09:44:36;24.90;75.30
56103;DHT22;41970;48.774;9.280;2023-05-28T09:47:15;24.60;73.60
56103;DHT22;41970;48.774;9.280;2023-05-28T09:49:46;24.40;74.80
56103;DHT22;41970;48.774;9.280;2023-05-28T09:52:22;24.50;73.80
56103;DHT22;41970;48.774;9.280;2023-05-28T09:54:53;24.60;73.30
56103;DHT22;41970;48.774;9.280;2023-05-28T09:57:26;24.60;72.10
56103;DHT22;41970;48.774;9.280;2023-05-28T09:59:55;24.30;71.80
56103;DHT22;41970;48.774;9.280;2023-05-28T10:02:32;24.30;72.20
56103;DHT22;41970;48.774;9.280;2023-05-28T10:05:02;24.20;73.00
56103;DHT22;41970;48.774;9.280;2023-05-28T10:07:33;24.10;71.40
56103;DHT22;41970;48.774;9.280;2023-05-28T10:10:00;24.20;73.80
56103;DHT22;41970;48.774;9.280;2023-05-28T10:12:30;24.20;72.70
56103;DHT22;41970;48.774;9.280;2023-05-28T10:14:57;24.30;73.00
56103;DHT22;41970;48.774;9.280;2023-05-28T10:17:23;24.40;71.90
56103;DHT22;41970;48.774;9.280;2023-05-28T10:19:49;24.40;72.60
56103;DHT22;41970;48.774;9.280;2023-05-28T10:22:16;24.40;72.90
56103;DHT22;41970;48.774;9.280;2023-05-28T10:24:42;24.20;72.00
56103;DHT22;41970;48.774;9.280;2023-05-28T10:27:15;23.90;72.70
56103;DHT22;41970;48.774;9.280;2023-05-28T10:29:43;23.90;72.10
56103;DHT22;41970;48.774;9.280;2023-05-28T10:32:09;24.10;72.30
56103;DHT22;41970;48.774;9.280;2023-05-28T10:34:38;24.20;72.40
56103;DHT22;41970;48.774;9.280;2023-05-28T10:37:06;24.30;73.10
56103;DHT22;41970;48.774;9.280;2023-05-28T10:39:43;24.30;71.30
56103;DHT22;41970;48.774;9.280;2023-05-28T10:42:16;24.00;72.50
56103;DHT22;41970;48.774;9.280;2023-05-28T10:47:15;24.60;72.00
56103;DHT22;41970;48.774;9.280;2023-05-28T10:52:37;24.80;70.20
56103;DHT22;41970;48.774;9.280;2023-05-28T10:55:11;24.90;71.20
56103;DHT22;41970;48.774;9.280;2023-05-28T10:57:47;25.10;71.10
56103;DHT22;41970;48.774;9.280;2023-05-28T11:00:24;24.80;70.80
56103;DHT22;41970;48.774;9.280;2023-05-28T11:02:52;24.60;70.10
56103;DHT22;41970;48.774;9.280;2023-05-28T11:05:25;24.30;69.10
56103;DHT22;41970;48.774;9.280;2023-05-28T11:07:51;24.30;70.70
56103;DHT22;41970;48.774;9.280;2023-05-28T11:10:18;24.40;69.60
56103;DHT22;41970;48.774;9.280;2023-05-28T11:12:44;24.60;69.10
56103;DHT22;41970;48.774;9.280;2023-05-28T11:15:14;24.70;69.20
56103;DHT22;41970;48.774;9.280;2023-05-28T11:17:45;24.90;68.90
56103;DHT22;41970;48.774;9.280;2023-05-28T11:22:42;24.50;68.00
56103;DHT22;41970;48.774;9.280;2023-05-28T11:25:09;24.10;66.10
56103;DHT22;41970;48.774;9.280;2023-05-28T11:27:35;23.80;66.80
56103;DHT22;41970;48.774;9.280;2023-05-28T11:30:14;24.00;67.80
56103;DHT22;41970;48.774;9.280;2023-05-28T11:32:42;24.10;68.50
56103;DHT22;41970;48.774;9.280;2023-05-28T11:35:12;24.40;67.00
56103;DHT22;41970;48.774;9.280;2023-05-28T11:37:40;24.30;64.60
56103;DHT22;41970;48.774;9.280;2023-05-28T11:40:08;24.10;65.40
56103;DHT22;41970;48.774;9.280;2023-05-28T11:42:38;24.00;64.20
56103;DHT22;41970;48.774;9.280;2023-05-28T11:45:08;24.10;63.90
56103;DHT22;41970;48.774;9.280;2023-05-28T11:47:36;24.30;65.20
56103;DHT22;41970;48.774;9.280;2023-05-28T11:50:12;24.50;63.20
56103;DHT22;41970;48.774;9.280;2023-05-28T11:52:39;24.70;64.60
56103;DHT22;41970;48.774;9.280;2023-05-28T11:55:05;24.60;64.40
56103;DHT22;41970;48.774;9.280;2023-05-28T11:57:32;24.70;64.00
56103;DHT22;41970;48.774;9.280;2023-05-28T12:00:12;24.90;62.90
56103;DHT22;41970;48.774;9.280;2023-05-28T12:02:48;25.00;64.30
56103;DHT22;41970;48.774;9.280;2023-05-28T12:05:16;25.00;64.70
56103;DHT22;41970;48.774;9.280;2023-05-28T12:07:50;25.10;64.30
56103;DHT22;41970;48.774;9.280;2023-05-28T12:10:18;25.00;64.20
56103;DHT22;41970;48.774;9.280;2023-05-28T12:12:52;25.00;63.70
56103;DHT22;41970;48.774;9.280;2023-05-28T12:15:26;24.90;63.40
56103;DHT22;41970;48.774;9.280;2023-05-28T12:17:56;24.90;62.90
56103;DHT22;41970;48.774;9.280;2023-05-28T12:23:02;25.30;62.50
56103;DHT22;41970;48.774;9.280;2023-05-28T12:25:34;24.70;62.10
56103;DHT22;41970;48.774;9.280;2023-05-28T12:28:00;24.60;61.40
56103;DHT22;41970;48.774;9.280;2023-05-28T12:30:26;24.50;61.70
56103;DHT22;41970;48.774;9.280;2023-05-28T12:32:52;24.70;62.90
56103;DHT22;41970;48.774;9.280;2023-05-28T12:35:17;24.60;60.80
56103;DHT22;41970;48.774;9.280;2023-05-28T12:37:43;24.70;60.20
56103;DHT22;41970;48.774;9.280;2023-05-28T12:40:10;25.00;60.70
56103;DHT22;41970;48.774;9.280;2023-05-28T12:42:36;25.10;60.40
56103;DHT22;41970;48.774;9.280;2023-05-28T12:45:02;25.00;59.90
56103;DHT22;41970;48.774;9.280;2023-05-28T12:47:27;25.10;58.60
56103;DHT22;41970;48.774;9.280;2023-05-28T12:49:53;25.10;59.70
56103;DHT22;41970;48.774;9.280;2023-05-28T12:52:19;25.10;58.40
56103;DHT22;41970;48.774;9.280;2023-05-28T12:54:45;25.30;57.60
56103;DHT22;41970;48.774;9.280;2023-05-28T12:57:10;25.20;58.40
56103;DHT22;41970;48.774;9.280;2023-05-28T12:59:36;25.30;57.60
56103;DHT22;41970;48.774;9.280;2023-05-28T13:02:02;25.10;56.10
56103;DHT22;41970;48.774;9.280;2023-05-28T13:04:28;25.00;57.20
56103;DHT22;41970;48.774;9.280;2023-05-28T13:06:54;25.10;57.80
56103;DHT22;41970;48.774;9.280;2023-05-28T13:09:20;24.80;56.80
56103;DHT22;41970;48.774;9.280;2023-05-28T13:11:46;24.70;57.00
56103;DHT22;41970;48.774;9.280;2023-05-28T13:14:12;24.60;57.50
56103;DHT22;41970;48.774;9.280;2023-05-28T13:16:38;24.60;57.50
56103;DHT22;41970;48.774;9.280;2023-05-28T13:19:04;24.60;57.10
56103;DHT22;41970;48.774;9.280;2023-05-28T13:21:31;24.70;57.50
56103;DHT22;41970;48.774;9.280;2023-05-28T13:23:58;24.90;58.80
56103;DHT22;41970;48.774;9.280;2023-05-28T13:26:25;25.10;57.80
56103;DHT22;41970;48.774;9.280;2023-05-28T13:28:51;25.30;57.60
56103;DHT22;41970;48.774;9.280;2023-05-28T13:31:18;25.40;57.40
56103;DHT22;41970;48.774;9.280;2023-05-28T13:33:44;25.40;56.70
56103;DHT22;41970;48.774;9.280;2023-05-28T13:36:10;25.10;57.90
56103;DHT22;41970;48.774;9.280;2023-05-28T13:38:36;25.10;58.30
56103;DHT22;41970;48.774;9.280;2023-05-28T13:41:02;25.40;57.40
56103;DHT22;41970;48.774;9.280;2023-05-28T13:43:30;25.70;57.20
56103;DHT22;41970;48.774;9.280;2023-05-28T13:45:55;26.00;58.60
56103;DHT22;41970;48.774;9.280;2023-05-28T13:48:22;26.10;57.80
56103;DHT22;41970;48.774;9.280;2023-05-28T13:50:48;26.00;59.00
56103;DHT22;41970;48.774;9.280;2023-05-28T13:53:17;26.00;58.80
56103;DHT22;41970;48.774;9.280;2023-05-28T13:55:43;25.90;58.70
56103;DHT22;41970;48.774;9.280;2023-05-28T13:58:09;26.00;59.70
56103;DHT22;41970;48.774;9.280;2023-05-28T14:00:34;26.10;59.50
56103;DHT22;41970;48.774;9.280;2023-05-28T14:03:00;26.30;58.90
56103;DHT22;41970;48.774;9.280;2023-05-28T14:05:26;26.50;59.00
56103;DHT22;41970;48.774;9.280;2023-05-28T14:07:52;26.50;58.50
56103;DHT22;41970;48.774;9.280;2023-05-28T14:10:17;26.60;59.40
56103;DHT22;41970;48.774;9.280;2023-05-28T14:12:50;26.40;60.80
56103;DHT22;41970;48.774;9.280;2023-05-28T14:15:16;26.30;61.40
56103;DHT22;41970;48.774;9.280;2023-05-28T14:17:42;26.40;60.30
56103;DHT22;41970;48.774;9.280;2023-05-28T14:20:08;26.40;60.20
56103;DHT22;41970;48.774;9.280;2023-05-28T14:22:34;26.50;61.10
56103;DHT22;41970;48.774;9.280;2023-05-28T14:25:00;26.40;61.60
56103;DHT22;41970;48.774;9.280;2023-05-28T14:27:26;26.50;61.10
56103;DHT22;41970;48.774;9.280;2023-05-28T14:29:51;26.70;60.60
56103;DHT22;41970;48.774;9.280;2023-05-28T14:32:17;26.60;61.10
56103;DHT22;41970;48.774;9.280;2023-05-28T14:34:43;26.60;60.80
56103;DHT22;41970;48.774;9.280;2023-05-28T14:37:09;26.60;60.00
56103;DHT22;41970;48.774;9.280;2023-05-28T14:39:34;26.10;60.80
56103;DHT22;41970;48.774;9.280;2023-05-28T14:42:00;25.80;61.00
56103;DHT22;41970;48.774;9.280;2023-05-28T14:44:27;25.40;61.20
56103;DHT22;41970;48.774;9.280;2023-05-28T14:46:54;25.30;61.60
56103;DHT22;41970;48.774;9.280;2023-05-28T14:49:19;25.30;62.80
56103;DHT22;41970;48.774;9.280;2023-05-28T14:51:45;25.60;64.10
56103;DHT22;41970;48.774;9.280;2023-05-28T14:54:11;25.70;63.10
56103;DHT22;41970;48.774;9.280;2023-05-28T14:56:37;25.80;61.80
56103;DHT22;41970;48.774;9.280;2023-05-28T14:59:02;25.90;62.30
56103;DHT22;41970;48.774;9.280;2023-05-28T15:01:28;26.00;60.50
56103;DHT22;41970;48.774;9.280;2023-05-28T15:03:54;25.90;62.60
56103;DHT22;41970;48.774;9.280;2023-05-28T15:06:20;26.00;60.90
56103;DHT22;41970;48.774;9.280;2023-05-28T15:08:45;26.20;61.20
56103;DHT22;41970;48.774;9.280;2023-05-28T15:11:14;26.30;60.70
56103;DHT22;41970;48.774;9.280;2023-05-28T15:13:40;26.20;60.70
56103;DHT22;41970;48.774;9.280;2023-05-28T15:16:06;26.40;59.80
56103;DHT22;41970;48.774;9.280;2023-05-28T15:18:32;26.00;59.80
56103;DHT22;41970;48.774;9.280;2023-05-28T15:20:58;26.00;61.30
56103;DHT22;41970;48.774;9.280;2023-05-28T15:23:24;26.10;60.50
56103;DHT22;41970;48.774;9.280;2023-05-28T15:25:50;26.20;61.40
56103;DHT22;41970;48.774;9.280;2023-05-28T15:28:16;26.20;60.10
56103;DHT22;41970;48.774;9.280;2023-05-28T15:30:42;26.00;59.80
56103;DHT22;41970;48.774;9.280;2023-05-28T15:33:10;26.00;60.60
56103;DHT22;41970;48.774;9.280;2023-05-28T15:35:36;26.00;60.90
56103;DHT22;41970;48.774;9.280;2023-05-28T15:38:02;26.00;60.10